FW2316 Federal Way WA US current weather conditions

sailwx.info

Wind from 252 at 0 knots gusting 4

Air temperature 19.4° C
Dewpoint 16.3° C

Last reported at 2020-Aug-03 17:46 UTC.
Time now 2020-Aug-03 18:30 UTC

Location: N 47°18' W 122°23'.
View on Google Maps.

See reports from other nearby stations

  
Tides and Currents Weather Stations Pressure Air Temp Water Temp Dewpoint Dewpoint Depression Visibility Wind Speed Wind Dir Waves Ship Positions
date/time (UTC)wind fromknots sea level pressurealtimeterstation pressurevisibilityair tempwater tempwave heightnotes
2020-Aug-03 18:01 242 1 gusting 6 19.4
2020-Aug-03 17:46 252 0 gusting 4 19.4
2020-Aug-03 17:31 217 1 gusting 6 18.9
2020-Aug-03 17:16 167 0 gusting 4 18.9
2020-Aug-03 17:01 169 0 gusting 3 18.3
2020-Aug-03 16:45 180 0 gusting 5 17.8
2020-Aug-03 16:30 218 1 gusting 3 17.8
2020-Aug-03 16:16 259 1 gusting 3 17.8
2020-Aug-03 16:00 211 17.2
2020-Aug-03 15:45 154 0 gusting 4 17.8
2020-Aug-03 15:30 232 1 gusting 4 17.2
2020-Aug-03 15:15 213 17.2
2020-Aug-03 15:00 168 0 gusting 3 16.7
2020-Aug-03 14:45 123 16.7
2020-Aug-03 14:30 121 1 gusting 3 16.7
2020-Aug-03 14:15 121 16.7
2020-Aug-03 14:00 134 16.7
2020-Aug-03 13:45 140 16.1
2020-Aug-03 13:30 160 0 gusting 2 16.1
2020-Aug-03 13:15 213 0 gusting 2 16.1
2020-Aug-03 13:00 136 16.1
2020-Aug-03 12:45 134 0 gusting 2 16.1
2020-Aug-03 12:30 180 16.1
2020-Aug-03 12:15 180 16.1
2020-Aug-03 12:00 211 0 gusting 3 16.1
2020-Aug-03 11:45 123 15.6
2020-Aug-03 11:30 130 1 gusting 3 15.6
2020-Aug-03 11:15 203 15.6
2020-Aug-03 11:00 203 15.0
2020-Aug-03 10:45 203 15.0
2020-Aug-03 10:30 203 15.0
2020-Aug-03 10:15 203 0 gusting 2 15.6
2020-Aug-03 10:01 201 0 gusting 3 15.6
2020-Aug-03 09:47 232 1 gusting 4 15.6
2020-Aug-03 09:31 221 2 gusting 5 16.1
2020-Aug-03 09:16 209 3 gusting 6 16.1
2020-Aug-03 09:01 174 2 gusting 7 16.1
2020-Aug-03 08:31 194 0 gusting 3 16.7
2020-Aug-03 08:16 196 1 gusting 4 16.7
2020-Aug-03 08:00 234 1 gusting 3 16.7
2020-Aug-03 07:45 236 17.2
2020-Aug-03 07:31 232 1 gusting 5 17.2
2020-Aug-03 07:16 219 1 gusting 5 17.8
2020-Aug-03 07:00 221 1 gusting 4 17.8
2020-Aug-03 06:46 220 0 gusting 2 17.8
2020-Aug-03 06:32 259 18.3
2020-Aug-03 06:15 259 18.3
2020-Aug-03 06:01 259 18.9
2020-Aug-03 05:45 259 18.9
2020-Aug-03 05:30 259 19.4
2020-Aug-03 05:15 259 0 gusting 3 19.4
2020-Aug-03 05:00 223 1 gusting 3 20.0
2020-Aug-03 04:45 268 1 gusting 6 20.6
2020-Aug-03 04:30 226 1 gusting 6 20.6
2020-Aug-03 04:15 239 1 gusting 3 20.6
2020-Aug-03 04:00 232 1 gusting 10 21.1
2020-Aug-03 03:45 219 21.1
2020-Aug-03 03:30 210 21.7
2020-Aug-03 03:16 207 0 gusting 4 22.2
2020-Aug-03 03:00 223 1 gusting 6 22.2
2020-Aug-03 02:46 248 2 gusting 6 22.8
2020-Aug-03 02:31 253 3 gusting 8 23.3
2020-Aug-03 02:16 260 3 gusting 8 23.9
2020-Aug-03 02:01 221 2 gusting 8 24.4
2020-Aug-03 01:46 228 3 gusting 9 24.4
2020-Aug-03 01:31 219 3 gusting 8 25.0
2020-Aug-03 01:16 207 4 gusting 9 25.0
2020-Aug-03 01:00 229 4 gusting 9 25.0
2020-Aug-03 00:45 232 4 gusting 12 25.6
2020-Aug-03 00:30 230 5 gusting 10 25.6
2020-Aug-03 00:15 233 5 gusting 15 25.6
2020-Aug-03 00:00 300 0 gusting 7 26.7
2020-Aug-02 23:45 223 1 gusting 9 26.7
2020-Aug-02 23:30 207 2 gusting 8 26.7
2020-Aug-02 23:15 232 2 gusting 6 26.1
2020-Aug-02 23:00 259 2 gusting 8 26.1
2020-Aug-02 22:45 235 3 gusting 7 25.6
2020-Aug-02 22:30 215 2 gusting 7 25.0
2020-Aug-02 22:15 336 0 gusting 6 25.6
2020-Aug-02 22:00 246 3 gusting 8 25.0
2020-Aug-02 21:45 265 2 gusting 7 24.4
2020-Aug-02 21:31 221 3 gusting 7 25.0
2020-Aug-02 21:30 214 2 gusting 7 25.0
2020-Aug-02 21:16 236 2 gusting 8 24.4
2020-Aug-02 21:02 219 2 gusting 8 23.9
2020-Aug-02 20:47 207 1 gusting 6 23.3
2020-Aug-02 20:31 216 2 gusting 6 23.3
2020-Aug-02 20:17 244 3 gusting 5 22.8
2020-Aug-02 20:01 266 3 gusting 8 22.8
2020-Aug-02 19:46 247 2 gusting 7 22.2
2020-Aug-02 19:31 234 2 gusting 8 22.2
2020-Aug-02 19:16 296 2 gusting 7 21.7
2020-Aug-02 19:01 278 1 gusting 7 21.7
2020-Aug-02 18:45 298 1 gusting 6 20.6
2020-Aug-02 18:32 265 3 gusting 7 20.0
2020-Aug-02 18:17 223 3 gusting 7 20.0
2020-Aug-02 17:46 269 3 gusting 6 19.4
2020-Aug-02 17:30 204 4 gusting 9 19.4
2020-Aug-02 17:15 216 3 gusting 7 18.9
2020-Aug-02 17:00 239 2 gusting 6 18.9
2020-Aug-02 16:45 215 2 gusting 6 18.3
2020-Aug-02 16:30 108 0 gusting 5 17.8
2020-Aug-02 16:15 232 3 gusting 6 17.2
2020-Aug-02 16:00 215 2 gusting 4 17.2
2020-Aug-02 15:45 227 3 gusting 6 16.1
2020-Aug-02 15:31 198 0 gusting 5 16.1
2020-Aug-02 15:15 214 0 gusting 6 15.6
2020-Aug-02 15:00 175 15.6
2020-Aug-02 14:45 221 15.0
2020-Aug-02 14:31 221 15.0
2020-Aug-02 14:16 110 15.0
2020-Aug-02 14:02 219 13.9
2020-Aug-02 13:47 219 13.3
2020-Aug-02 13:31 219 13.3
2020-Aug-02 13:16 219 13.3
2020-Aug-02 13:02 219 13.3
2020-Aug-02 12:45 219 13.3
2020-Aug-02 12:31 219 13.3
2020-Aug-02 12:15 219 13.9
2020-Aug-02 12:00 219 13.9
2020-Aug-02 11:46 219 13.9
2020-Aug-02 11:31 219 13.9
2020-Aug-02 11:16 219 14.4
2020-Aug-02 11:01 219 14.4
2020-Aug-02 10:46 219 14.4
2020-Aug-02 10:30 219 14.4
2020-Aug-02 10:15 219 14.4
2020-Aug-02 09:46 219 15.6
2020-Aug-02 09:30 219 15.0
2020-Aug-02 09:16 219 15.6
2020-Aug-02 09:01 219 15.6
2020-Aug-02 08:45 219 16.1
2020-Aug-02 08:30 219 0 gusting 3 16.7
2020-Aug-02 08:15 219 16.7
2020-Aug-02 08:00 219 1 gusting 2 16.7
2020-Aug-02 07:45 219 1 gusting 4 17.2
2020-Aug-02 07:30 222 0 gusting 2 17.2
2020-Aug-02 07:15 221 17.2
2020-Aug-02 07:00 221 17.8
2020-Aug-02 06:45 234 1 gusting 4 17.8
2020-Aug-02 06:30 225 0 gusting 3 17.8
2020-Aug-02 06:15 225 0 gusting 2 18.3
2020-Aug-02 06:00 225 0 gusting 3 18.3
2020-Aug-02 05:45 209 0 gusting 2 18.9
2020-Aug-02 05:30 209 0 gusting 5 18.9
2020-Aug-02 05:15 222 1 gusting 2 18.9
2020-Aug-02 05:02 269 18.9
2020-Aug-02 04:47 269 19.4
2020-Aug-02 04:32 269 19.4
2020-Aug-02 04:02 269 20.0
2020-Aug-02 03:45 269 20.6
2020-Aug-02 03:30 269 21.1
2020-Aug-02 03:15 269 21.7
2020-Aug-02 03:03 269 0 gusting 2 22.2
2020-Aug-02 02:48 269 22.2
2020-Aug-02 02:31 270 22.2
2020-Aug-02 02:17 296 1 gusting 3 22.2
2020-Aug-02 02:01 294 0 gusting 6 22.2
2020-Aug-02 01:45 224 0 gusting 3 22.8
2020-Aug-02 01:31 288 22.2
2020-Aug-02 01:30 235 0 gusting 4 22.2
2020-Aug-02 01:01 201 1 gusting 7 22.8
2020-Aug-02 00:47 272 2 gusting 7 22.8
2020-Aug-02 00:33 221 2 gusting 6 22.8
2020-Aug-02 00:17 267 1 gusting 6 22.8
2020-Aug-02 00:02 265 1 gusting 6 22.8
2020-Aug-01 23:46 235 0 gusting 6 22.2
2020-Aug-01 23:32 221 3 gusting 7 22.2
2020-Aug-01 23:16 242 2 gusting 8 22.2
2020-Aug-01 23:01 286 1 gusting 4 22.2
2020-Aug-01 22:46 263 2 gusting 6 22.2
2020-Aug-01 22:33 067 2 gusting 6 21.7
2020-Aug-01 22:16 246 2 gusting 6 21.7
2020-Aug-01 22:02 229 2 gusting 6 21.1
2020-Aug-01 21:45 266 1 gusting 6 20.6
2020-Aug-01 21:15 015 1 gusting 4 20.0
2020-Aug-01 21:01 283 18.9
2020-Aug-01 20:46 267 3 gusting 6 18.3
2020-Aug-01 20:31 281 0 gusting 6 18.3
2020-Aug-01 20:17 213 1 gusting 5 18.9
2020-Aug-01 20:01 269 1 gusting 6 17.8
2020-Aug-01 19:47 250 0 gusting 4 17.2
2020-Aug-01 19:31 296 1 gusting 6 17.2
2020-Aug-01 19:16 168 17.2
2020-Aug-01 19:01 162 0 gusting 4 16.7
2020-Aug-01 18:45 319 0 gusting 4 16.7
2020-Aug-01 18:30 233 0 gusting 3 16.1
2020-Aug-01 18:16 193 0 gusting 2 16.1
2020-Aug-01 18:01 173 16.1